Algosea — CFN4229 — position and weather

sailwx.info

Track history (hours):
 
Tides and Currents Weather Stations Pressure Air Temp Water Temp Dewpoint Dewpoint Depression Visibility Wind Speed Wind Dir Waves Ship Positions

Algosea

Last reported at 2018-Apr-19 09:50 UTC. Time now 2018-Apr-24 07:07 UTC.
Position N 45°13' W 074°18'.

Length 144 m; draft 6.5 m.

Type: Ship. MMSI: 316006868.

Date/timePositionNaut miles runAvg speedWind from/ knotsBaromVisibWave heightAir tempDewpointWater temp
2018-Apr-19 09:50N 45°13' W 074°18'411.4
2018-Apr-19 09:30N 45°14' W 074°13'6 9.8
2018-Apr-19 08:52N 45°13' W 074°04'4 9.6
2018-Apr-19 08:30N 45°15' W 073°59'4 8.8
2018-Apr-19 08:01N 45°18' W 073°56'0 0.8
2018-Apr-19 07:31N 45°18' W 073°55'1 1.1
2018-Apr-19 07:01N 45°19' W 073°55'2 3.0
2018-Apr-19 06:30N 45°20' W 073°54'611.2
2018-Apr-19 06:00N 45°24' W 073°48'5 9.7
2018-Apr-19 05:31N 45°25' W 073°41'3 6.3
2018-Apr-19 05:00N 45°24' W 073°37'2 3.8
2018-Apr-19 04:31N 45°24' W 073°34'1 2.2
2018-Apr-19 04:01N 45°24' W 073°32'3 6.4
2018-Apr-19 03:31N 45°27' W 073°30'2 4.9
2018-Apr-19 03:00N 45°30' W 073°31'0 0.7
2018-Apr-19 02:31N 45°30' W 073°31'3 0.1
2018-Apr-17 12:28N 45°33' W 073°32'3 6.1
2018-Apr-17 12:00N 45°30' W 073°31'0 0.4
2018-Apr-17 11:31N 45°30' W 073°31'1 1.9
2018-Apr-17 11:01N 45°29' W 073°31'3 6.4
2018-Apr-17 10:30N 45°26' W 073°30'3 5.6
2018-Apr-17 10:00N 45°24' W 073°34'0 0.5
2018-Apr-17 09:31N 45°24' W 073°34'2 3.4
2018-Apr-17 09:01N 45°24' W 073°37'3 6.2
2018-Apr-17 08:30N 45°25' W 073°41'4 8.1
2018-Apr-17 08:00N 45°24' W 073°47'713.2
2018-Apr-17 07:30N 45°20' W 073°54'1 2.9
2018-Apr-17 07:00N 45°19' W 073°55'1 1.7
2018-Apr-17 06:30N 45°18' W 073°56'0 0.1
2018-Apr-17 06:00N 45°18' W 073°56'2 4.1
2018-Apr-17 05:30N 45°16' W 073°57'710.5
2018-Apr-17 04:48N 45°14' W 074°07'411.8
2018-Apr-17 04:27N 45°14' W 074°13'  
Track history (hours):
 
Tides and Currents Weather Stations Pressure Air Temp Water Temp Dewpoint Dewpoint Depression Visibility Wind Speed Wind Dir Waves Ship Positions

Algosea

Last reported at 2018-Apr-19 09:50 UTC. Time now 2018-Apr-24 07:07 UTC.
Position N 45°13' W 074°18'.

Length 144 m; draft 6.5 m.

Type: Ship. MMSI: 316006868.

Date/timePositionNaut miles runAvg speedWind from/ knotsBaromVisibWave heightAir tempDewpointWater temp
2018-Apr-19 09:50N 45°13' W 074°18'411.4
2018-Apr-19 09:30N 45°14' W 074°13'6 9.8
2018-Apr-19 08:52N 45°13' W 074°04'4 9.6
2018-Apr-19 08:30N 45°15' W 073°59'4 8.8
2018-Apr-19 08:01N 45°18' W 073°56'0 0.8
2018-Apr-19 07:31N 45°18' W 073°55'1 1.1
2018-Apr-19 07:01N 45°19' W 073°55'2 3.0
2018-Apr-19 06:30N 45°20' W 073°54'611.2
2018-Apr-19 06:00N 45°24' W 073°48'5 9.7
2018-Apr-19 05:31N 45°25' W 073°41'3 6.3
2018-Apr-19 05:00N 45°24' W 073°37'2 3.8
2018-Apr-19 04:31N 45°24' W 073°34'1 2.2
2018-Apr-19 04:01N 45°24' W 073°32'3 6.4
2018-Apr-19 03:31N 45°27' W 073°30'2 4.9
2018-Apr-19 03:00N 45°30' W 073°31'0 0.7
2018-Apr-19 02:31N 45°30' W 073°31'3 0.1
2018-Apr-17 12:28N 45°33' W 073°32'3 6.1
2018-Apr-17 12:00N 45°30' W 073°31'0 0.4
2018-Apr-17 11:31N 45°30' W 073°31'1 1.9
2018-Apr-17 11:01N 45°29' W 073°31'3 6.4
2018-Apr-17 10:30N 45°26' W 073°30'3 5.6
2018-Apr-17 10:00N 45°24' W 073°34'0 0.5
2018-Apr-17 09:31N 45°24' W 073°34'2 3.4
2018-Apr-17 09:01N 45°24' W 073°37'3 6.2
2018-Apr-17 08:30N 45°25' W 073°41'4 8.1
2018-Apr-17 08:00N 45°24' W 073°47'713.2
2018-Apr-17 07:30N 45°20' W 073°54'1 2.9
2018-Apr-17 07:00N 45°19' W 073°55'1 1.7
2018-Apr-17 06:30N 45°18' W 073°56'0 0.1
2018-Apr-17 06:00N 45°18' W 073°56'2 4.1
2018-Apr-17 05:30N 45°16' W 073°57'710.5
2018-Apr-17 04:48N 45°14' W 074°07'411.8
2018-Apr-17 04:27N 45°14' W 074°13'  

Dump ship's entire track history